Time;durP1;ratioP1;P1;durP2;ratioP2;P2;SDS_P1;SDS_P2;PMS_P1;PMS_P2;Temp;Humidity;BMP_temperature;BMP_pressure;BME280_temperature;BME280_humidity;BME280_pressure;Samples;Min_cycle;Max_cycle;Signal;HPM_P1;HPM_P2
2022/09/07 00:00:37;;;;;;;15.10;2.40;;;;;;;17.99;100.00;99718.78;5010224;28;20172;-85
2022/09/07 00:03:03;;;;;;;6.70;1.73;;;;;;;18.03;100.00;99723.59;5011340;28;20117;-85
2022/09/07 00:05:29;;;;;;;10.48;2.10;;;;;;;17.74;100.00;99725.94;5012194;28;20026;-85
2022/09/07 00:07:54;;;;;;;12.13;2.53;;;;;;;17.70;100.00;99722.78;5010781;28;20037;-85
2022/09/07 00:10:21;;;;;;;11.40;2.35;;;;;;;17.74;100.00;99724.13;5011170;28;20053;-85
2022/09/07 00:12:47;;;;;;;13.80;2.60;;;;;;;17.71;100.00;99716.47;5010530;28;20026;-85
2022/09/07 00:15:12;;;;;;;13.70;2.33;;;;;;;17.78;100.00;99717.47;5011917;28;20079;-85
2022/09/07 00:17:38;;;;;;;17.33;2.95;;;;;;;17.78;100.00;99714.81;5011559;28;20087;-85
2022/09/07 00:20:06;;;;;;;8.85;2.08;;;;;;;17.86;100.00;99707.88;5015485;28;20026;-85
2022/09/07 00:22:32;;;;;;;9.07;2.33;;;;;;;17.90;100.00;99710.00;5015317;28;20369;-85
2022/09/07 00:24:57;;;;;;;11.90;2.63;;;;;;;17.95;100.00;99701.53;5014373;28;20033;-85
2022/09/07 00:27:22;;;;;;;6.40;2.05;;;;;;;18.00;100.00;99699.19;5010524;28;20545;-85
2022/09/07 00:29:48;;;;;;;18.08;3.45;;;;;;;18.07;100.00;99702.00;5015033;28;20026;-85
2022/09/07 00:32:13;;;;;;;10.23;2.00;;;;;;;18.08;100.00;99707.16;5015262;28;20034;-86
2022/09/07 00:34:38;;;;;;;13.75;2.75;;;;;;;18.07;100.00;99702.00;5014292;28;20108;-85
2022/09/07 00:37:04;;;;;;;11.57;2.28;;;;;;;18.11;100.00;99703.31;5015225;28;20026;-85
2022/09/07 00:39:29;;;;;;;13.18;2.33;;;;;;;18.55;100.00;99700.19;5015785;28;20034;-85
2022/09/07 00:41:55;;;;;;;12.27;2.55;;;;;;;18.68;100.00;99704.94;5014371;28;20030;-85
2022/09/07 00:44:39;;;;;;;6.95;2.00;;;;;;;18.77;100.00;99704.72;5015220;28;20026;-85
2022/09/07 00:47:08;;;;;;;9.95;2.17;;;;;;;18.82;100.00;99689.09;5013337;28;20030;-86
2022/09/07 00:49:34;;;;;;;8.40;2.15;;;;;;;18.83;100.00;99685.44;5015572;28;20021;-85
2022/09/07 00:52:04;;;;;;;10.90;2.00;;;;;;;18.96;100.00;99684.88;5014775;28;20500;-85
2022/09/07 00:54:35;;;;;;;9.82;2.17;;;;;;;18.95;100.00;99675.22;5015235;28;20038;-85
2022/09/07 00:57:01;;;;;;;12.55;3.42;;;;;;;18.92;100.00;99670.25;5012234;28;20455;-85
2022/09/07 00:59:33;;;;;;;10.10;2.25;;;;;;;18.95;100.00;99672.56;5014874;28;20064;-85
2022/09/07 01:01:58;;;;;;;;;;;;;;;18.93;100.00;99679.88;5014743;28;20026;-86
2022/09/07 01:04:24;;;;;;;13.68;2.92;;;;;;;18.53;100.00;99679.09;5014976;28;19924;-85
2022/09/07 01:06:50;;;;;;;17.55;3.50;;;;;;;18.40;100.00;99684.13;5014528;28;20029;-85
2022/09/07 01:09:19;;;;;;;21.50;3.42;;;;;;;18.48;100.00;99689.41;5014658;28;20022;-85
2022/09/07 01:11:49;;;;;;;18.00;3.42;;;;;;;18.59;100.00;99685.53;5013756;28;20034;-85
2022/09/07 01:14:18;;;;;;;22.90;3.60;;;;;;;18.89;100.00;99683.91;5014562;28;20041;-85
2022/09/07 01:17:08;;;;;;;23.85;3.85;;;;;;;19.04;100.00;99683.97;5014931;28;20025;-85
2022/09/07 01:20:11;;;;;;;20.27;4.03;;;;;;;18.74;100.00;99677.63;5013305;28;20048;-85
2022/09/07 01:23:13;;;;;;;14.38;2.40;;;;;;;19.10;100.00;99669.16;5014626;28;20484;-85
2022/09/07 01:25:59;;;;;;;16.20;3.03;;;;;;;19.12;100.00;99664.47;5014315;28;20472;-85
2022/09/07 01:28:33;;;;;;;28.48;5.65;;;;;;;18.91;100.00;99665.94;5014909;28;20034;-85
2022/09/07 01:31:16;;;;;;;19.63;3.67;;;;;;;18.95;100.00;99664.56;5013944;28;20030;-85
2022/09/07 01:33:59;;;;;;;17.98;3.17;;;;;;;19.09;100.00;99668.31;5014640;28;20029;-85
2022/09/07 01:36:33;;;;;;;19.08;3.13;;;;;;;19.14;100.00;99675.78;5014376;28;20030;-85
2022/09/07 01:39:01;;;;;;;21.60;3.72;;;;;;;19.17;100.00;99680.72;5014395;28;20543;-85
2022/09/07 01:41:55;;;;;;;19.92;4.13;;;;;;;19.10;100.00;99679.78;5012815;28;20026;-86
2022/09/07 01:44:35;;;;;;;17.80;2.83;;;;;;;19.22;100.00;99673.03;5013394;28;20026;-85
2022/09/07 01:47:07;;;;;;;13.93;2.65;;;;;;;19.23;100.00;99672.03;5014088;28;20022;-85
2022/09/07 01:49:48;;;;;;;20.85;3.75;;;;;;;19.31;100.00;99679.97;5014499;28;20034;-85
2022/09/07 01:52:32;;;;;;;16.63;3.93;;;;;;;19.24;100.00;99676.34;5013715;28;20472;-85
2022/09/07 01:55:04;;;;;;;17.02;4.20;;;;;;;19.27;100.00;99675.16;5014358;28;20350;-85
2022/09/07 01:57:42;;;;;;;;;;;;;;;19.20;100.00;99686.53;5013168;28;20105;-85
2022/09/07 02:00:11;;;;;;;19.83;3.35;;;;;;;18.95;100.00;99677.88;5013591;28;20363;-86
2022/09/07 02:03:10;;;;;;;20.23;3.80;;;;;;;18.80;100.00;99672.50;5013272;28;20034;-85
2022/09/07 02:05:59;;;;;;;25.63;4.72;;;;;;;18.49;100.00;99666.31;4994395;28;20137;-86
2022/09/07 02:08:30;;;;;;;20.30;3.47;;;;;;;18.64;100.00;99672.53;5012317;28;20026;-86
2022/09/07 02:11:03;;;;;;;29.50;4.25;;;;;;;18.57;100.00;99659.13;5012489;28;20026;-85
2022/09/07 02:13:34;;;;;;;24.52;3.53;;;;;;;18.50;100.00;99674.09;5013918;28;20041;-85
2022/09/07 02:16:21;;;;;;;24.00;5.68;;;;;;;18.31;100.00;99671.88;5013688;28;20025;-85
2022/09/07 02:18:52;;;;;;;23.67;3.78;;;;;;;18.45;100.00;99671.16;5013343;28;20104;-85
2022/09/07 02:21:23;;;;;;;28.65;4.68;;;;;;;18.16;100.00;99671.75;5013315;28;20029;-85
2022/09/07 02:23:57;;;;;;;28.83;4.23;;;;;;;18.43;100.00;99670.50;5013569;28;20034;-85
2022/09/07 02:26:26;;;;;;;22.05;3.42;;;;;;;18.90;100.00;99672.28;5009614;28;20025;-85
2022/09/07 02:28:52;;;;;;;36.33;4.85;;;;;;;18.90;100.00;99672.28;4994202;28;20038;-85
2022/09/07 02:31:17;;;;;;;29.92;4.15;;;;;;;19.12;100.00;99670.63;5000048;28;20026;-85
2022/09/07 02:33:42;;;;;;;26.38;4.32;;;;;;;19.17;100.00;99672.75;5013098;28;20480;-85
2022/09/07 02:36:10;;;;;;;31.63;5.18;;;;;;;19.09;100.00;99676.28;5012101;28;20496;-85
2022/09/07 02:38:36;;;;;;;24.58;4.55;;;;;;;19.10;100.00;99685.13;5012607;28;20030;-85
2022/09/07 02:41:02;;;;;;;30.67;5.18;;;;;;;19.01;100.00;99677.16;5010635;28;20041;-85
2022/09/07 02:43:30;;;;;;;30.55;5.78;;;;;;;19.03;100.00;99680.47;5013102;28;20560;-85
2022/09/07 02:46:07;;;;;;;24.98;3.97;;;;;;;19.10;100.00;99671.81;5013324;28;20026;-85
2022/09/07 02:48:41;;;;;;;30.80;4.72;;;;;;;18.94;100.00;99673.56;5013131;28;20411;-85
2022/09/07 02:51:22;;;;;;;38.95;6.28;;;;;;;18.93;100.00;99673.75;5012855;28;20164;-85
2022/09/07 02:54:07;;;;;;;25.70;4.20;;;;;;;19.04;100.00;99673.34;5013053;28;20026;-85
2022/09/07 02:56:54;;;;;;;29.92;5.35;;;;;;;18.97;100.00;99675.03;5011512;28;20395;-85
2022/09/07 02:59:28;;;;;;;30.45;5.18;;;;;;;19.02;100.00;99670.84;5012779;28;20113;-85
2022/09/07 03:02:14;;;;;;;23.42;3.55;;;;;;;19.13;100.00;99668.78;4997432;28;20486;-85
2022/09/07 03:05:15;;;;;;;30.50;6.30;;;;;;;18.97;100.00;99675.88;4993250;28;20058;-85
2022/09/07 03:07:45;;;;;;;27.85;4.72;;;;;;;18.94;100.00;99664.78;5001316;28;20087;-85
2022/09/07 03:10:13;;;;;;;29.05;5.10;;;;;;;18.96;100.00;99676.06;5004085;28;20048;-85
2022/09/07 03:12:48;;;;;;;32.63;5.35;;;;;;;18.76;100.00;99680.94;5008399;28;20120;-85
2022/09/07 03:15:17;;;;;;;32.90;4.70;;;;;;;18.99;100.00;99675.69;5012541;28;20349;-85
2022/09/07 03:17:44;;;;;;;29.08;4.47;;;;;;;18.98;100.00;99674.88;5012611;28;20041;-85
2022/09/07 03:20:09;;;;;;;37.97;4.93;;;;;;;18.93;100.00;99677.22;5012708;28;20032;-85
2022/09/07 03:22:35;;;;;;;40.78;6.63;;;;;;;18.74;100.00;99674.97;5012406;28;20038;-85
2022/09/07 03:25:03;;;;;;;34.92;7.05;;;;;;;18.86;100.00;99672.78;5011258;28;20032;-85
2022/09/07 03:27:28;;;;;;;32.97;5.55;;;;;;;18.94;100.00;99676.22;5011571;28;20080;-85
2022/09/07 03:29:54;;;;;;;37.05;5.13;;;;;;;19.11;100.00;99676.13;5012647;28;20017;-85
2022/09/07 03:32:19;;;;;;;30.45;5.18;;;;;;;19.07;100.00;99690.78;5005987;28;20030;-85
2022/09/07 03:34:47;;;;;;;29.38;4.30;;;;;;;19.01;100.00;99677.16;5012380;28;20022;-85
2022/09/07 03:37:12;;;;;;;29.98;5.25;;;;;;;19.08;100.00;99684.47;5011634;28;20392;-85
2022/09/07 03:39:38;;;;;;;31.38;4.28;;;;;;;19.03;100.00;99677.00;5010555;28;20022;-85
2022/09/07 03:42:03;;;;;;;37.08;5.32;;;;;;;18.99;100.00;99678.34;5012341;28;20026;-85
2022/09/07 03:44:28;;;;;;;38.97;6.15;;;;;;;19.04;100.00;99678.66;5012254;28;20495;-85
2022/09/07 03:46:54;;;;;;;26.10;4.45;;;;;;;19.02;100.00;99686.81;5012131;28;20061;-85
2022/09/07 03:49:19;;;;;;;33.13;5.80;;;;;;;19.19;100.00;99681.38;5012010;28;20108;-85
2022/09/07 03:51:44;;;;;;;22.90;4.03;;;;;;;19.11;100.00;99679.59;5011854;28;20476;-85
2022/09/07 03:54:10;;;;;;;22.25;3.80;;;;;;;19.00;100.00;99674.72;5010775;28;20144;-85
2022/09/07 03:56:35;;;;;;;22.38;3.92;;;;;;;19.11;100.00;99686.75;5010403;28;20523;-85
2022/09/07 03:59:00;;;;;;;29.77;4.80;;;;;;;19.02;100.00;99678.00;5012097;28;20105;-85
2022/09/07 04:01:26;;;;;;;24.13;4.78;;;;;;;19.02;100.00;99672.69;5011295;28;20065;-85
2022/09/07 04:03:55;;;;;;;22.13;3.72;;;;;;;19.01;100.00;99668.38;5011598;28;20026;-85
2022/09/07 04:06:20;;;;;;;26.52;5.35;;;;;;;18.97;100.00;99669.72;5011647;28;20439;-85
2022/09/07 04:08:46;;;;;;;22.45;3.40;;;;;;;18.93;100.00;99679.88;5010193;28;20025;-85
2022/09/07 04:11:15;;;;;;;17.90;3.38;;;;;;;18.85;100.00;99677.28;5011637;28;20036;-85
2022/09/07 04:13:40;;;;;;;17.50;3.88;;;;;;;18.75;100.00;99684.63;5011711;28;20439;-85
2022/09/07 04:16:20;;;;;;;13.90;2.58;;;;;;;18.67;100.00;99690.00;5009687;28;20030;-85
2022/09/07 04:18:48;;;;;;;16.25;2.95;;;;;;;18.58;100.00;99692.69;5011588;28;20026;-85
2022/09/07 04:21:14;;;;;;;19.92;2.97;;;;;;;18.48;100.00;99691.25;5011882;28;20072;-85
2022/09/07 04:23:40;;;;;;;19.75;3.28;;;;;;;18.38;100.00;99684.31;5010352;28;20038;-85
2022/09/07 04:26:11;;;;;;;22.33;3.78;;;;;;;18.34;100.00;99685.63;5011265;28;20033;-85
2022/09/07 04:28:36;;;;;;;16.80;3.38;;;;;;;18.39;100.00;99682.47;5011875;28;20046;-85
2022/09/07 04:31:02;;;;;;;16.13;4.13;;;;;;;18.35;100.00;99691.81;5011507;28;20061;-85
2022/09/07 04:33:30;;;;;;;22.35;3.80;;;;;;;18.36;100.00;99693.44;5011862;28;20026;-85
2022/09/07 04:35:57;;;;;;;20.27;3.85;;;;;;;18.37;100.00;99692.47;5011361;28;20032;-85
2022/09/07 04:38:23;;;;;;;20.08;4.00;;;;;;;18.43;100.00;99687.28;5010004;28;20053;-85
2022/09/07 04:40:48;;;;;;;21.50;4.03;;;;;;;18.51;100.00;99686.41;5011507;28;20466;-85
2022/09/07 04:43:13;;;;;;;11.13;3.60;;;;;;;18.54;100.00;99685.22;5011726;28;20553;-85
2022/09/07 04:45:39;;;;;;;17.48;2.85;;;;;;;18.62;100.00;99683.38;5011728;28;20018;-85
2022/09/07 04:48:04;;;;;;;27.38;4.90;;;;;;;18.58;100.00;99690.03;5011288;28;20033;-85
2022/09/07 04:50:30;;;;;;;21.38;3.38;;;;;;;18.57;100.00;99680.41;5011528;28;20431;-85
2022/09/07 04:52:55;;;;;;;17.85;3.13;;;;;;;18.69;100.00;99682.66;5010748;28;20030;-85
2022/09/07 04:55:21;;;;;;;14.68;3.13;;;;;;;18.75;100.00;99684.63;4994293;28;20054;-85
2022/09/07 04:57:49;;;;;;;29.05;4.45;;;;;;;18.67;100.00;99680.19;5008069;28;20033;-85
2022/09/07 05:00:15;;;;;;;14.38;3.03;;;;;;;18.75;100.00;99688.09;5010555;28;20125;-85
2022/09/07 05:02:41;;;;;;;13.07;2.58;;;;;;;18.78;100.00;99687.78;5011464;28;20106;-85
2022/09/07 05:05:07;;;;;;;13.02;3.58;;;;;;;18.78;100.00;99682.44;5012268;28;20544;-85
2022/09/07 05:07:32;;;;;;;16.80;3.17;;;;;;;18.79;100.00;99677.94;5013987;28;20034;-85
2022/09/07 05:09:57;;;;;;;20.58;4.57;;;;;;;18.80;100.00;99677.00;5014234;28;20026;-85
2022/09/07 05:12:23;;;;;;;16.35;3.30;;;;;;;19.06;100.00;99687.28;5006841;28;20104;-85
2022/09/07 05:14:48;;;;;;;17.55;2.80;;;;;;;19.07;100.00;99686.28;5014214;28;20490;-85
2022/09/07 05:17:13;;;;;;;15.38;3.63;;;;;;;19.06;100.00;99686.47;5014743;28;20034;-85
2022/09/07 05:19:38;;;;;;;11.45;2.65;;;;;;;19.05;100.00;99684.81;5014653;28;20022;-85
2022/09/07 05:22:04;;;;;;;9.25;2.53;;;;;;;19.08;100.00;99685.28;5014418;28;20042;-84
2022/09/07 05:24:29;;;;;;;20.35;3.40;;;;;;;19.10;100.00;99685.13;5014783;28;20117;-85
2022/09/07 05:26:55;;;;;;;24.85;4.90;;;;;;;19.16;100.00;99684.41;5011350;28;20029;-85
2022/09/07 05:29:20;;;;;;;26.52;5.03;;;;;;;19.15;100.00;99685.41;5014476;28;20030;-85
2022/09/07 05:31:47;;;;;;;15.70;2.90;;;;;;;19.22;100.00;99683.69;5013872;28;20498;-85
2022/09/07 05:34:13;;;;;;;15.27;3.83;;;;;;;19.25;100.00;99688.63;5014764;28;20030;-85
2022/09/07 05:36:39;;;;;;;21.45;4.07;;;;;;;19.23;100.00;99690.66;5013733;28;20017;-85
2022/09/07 05:39:06;;;;;;;18.55;3.47;;;;;;;19.27;100.00;99697.28;5013613;28;20030;-86
2022/09/07 05:41:31;;;;;;;18.20;3.88;;;;;;;19.16;100.00;99700.38;5013029;28;20065;-86
2022/09/07 05:43:57;;;;;;;17.30;3.45;;;;;;;19.17;100.00;99692.22;5014094;28;20061;-86
2022/09/07 05:46:22;;;;;;;27.67;4.28;;;;;;;19.01;100.00;99693.13;5014182;28;20036;-85
2022/09/07 05:48:48;;;;;;;30.38;4.00;;;;;;;18.98;100.00;99682.84;5013500;28;20040;-86
2022/09/07 05:51:14;;;;;;;25.15;4.85;;;;;;;19.03;100.00;99691.13;5012911;28;20361;-86
2022/09/07 05:53:42;;;;;;;16.30;4.15;;;;;;;19.03;100.00;99685.78;5014304;28;20108;-86
2022/09/07 05:56:08;;;;;;;17.15;4.28;;;;;;;18.99;100.00;99689.00;5012836;28;20021;-86
2022/09/07 05:58:35;;;;;;;21.40;3.90;;;;;;;18.86;100.00;99678.94;5012106;28;20037;-86
2022/09/07 06:01:09;;;;;;;27.38;4.95;;;;;;;18.74;100.00;99690.94;5008566;28;20034;-86
2022/09/07 06:03:36;;;;;;;18.10;4.50;;;;;;;18.80;100.00;99696.44;5004559;28;20041;-85
2022/09/07 06:06:03;;;;;;;12.93;2.92;;;;;;;18.82;100.00;99699.75;5005415;28;20446;-86
2022/09/07 06:08:30;;;;;;;10.00;2.55;;;;;;;18.83;100.00;99705.88;5008104;28;20084;-85
2022/09/07 06:10:56;;;;;;;10.65;2.70;;;;;;;18.84;100.00;99710.22;5007806;28;20034;-85
2022/09/07 06:13:22;;;;;;;15.60;2.70;;;;;;;18.96;100.00;99715.97;5008617;28;20033;-86
2022/09/07 06:15:47;;;;;;;12.77;2.75;;;;;;;19.01;100.00;99709.09;5007008;28;20030;-85
2022/09/07 06:18:12;;;;;;;19.15;3.15;;;;;;;19.07;100.00;99709.41;5007831;28;20069;-85
2022/09/07 06:20:38;;;;;;;24.55;4.30;;;;;;;19.22;100.00;99712.97;5007928;28;20416;-85
2022/09/07 06:23:03;;;;;;;18.23;3.45;;;;;;;19.41;100.00;99716.97;5008343;28;20030;-85
2022/09/07 06:25:28;;;;;;;29.52;4.25;;;;;;;19.45;100.00;99714.78;5006655;28;20047;-85
2022/09/07 06:27:54;;;;;;;21.60;4.15;;;;;;;19.65;100.00;99720.44;5007630;28;20026;-85
2022/09/07 06:30:19;;;;;;;29.65;4.65;;;;;;;19.66;100.00;99722.91;5007173;28;20391;-85
2022/09/07 06:32:45;;;;;;;20.38;4.07;;;;;;;19.74;100.00;99714.88;5008074;28;20076;-85
2022/09/07 06:35:12;;;;;;;20.38;3.70;;;;;;;19.78;100.00;99710.84;5008462;28;20487;-85
2022/09/07 06:37:37;;;;;;;29.55;5.13;;;;;;;19.64;100.00;99714.28;5007528;28;20494;-85
2022/09/07 06:40:03;;;;;;;31.98;5.40;;;;;;;19.91;100.00;99725.41;5006762;28;20025;-86
2022/09/07 06:42:28;;;;;;;28.17;4.82;;;;;;;19.79;100.00;99723.16;5007402;28;20018;-85
2022/09/07 06:44:54;;;;;;;36.28;5.22;;;;;;;20.05;100.00;99726.44;5003037;28;20030;-85
2022/09/07 06:47:19;;;;;;;28.88;5.53;;;;;;;20.13;100.00;99724.50;5000562;28;20072;-85
2022/09/07 06:49:44;;;;;;;36.40;4.50;;;;;;;20.35;100.00;99721.94;5004639;28;20030;-85
2022/09/07 06:52:10;;;;;;;29.05;3.83;;;;;;;20.50;100.00;99719.25;5010188;28;20163;-85
2022/09/07 06:54:35;;;;;;;27.38;4.13;;;;;;;20.64;100.00;99714.94;5008260;28;20416;-85
2022/09/07 06:57:07;;;;;;;26.70;4.85;;;;;;;20.68;100.00;99711.72;5021681;28;20472;-85
2022/09/07 06:59:32;;;;;;;36.45;5.78;;;;;;;20.88;100.00;99706.59;5006987;28;20424;-85
2022/09/07 07:01:58;;;;;;;30.52;5.28;;;;;;;21.47;100.00;99707.44;5010428;28;20022;-85
2022/09/07 07:04:23;;;;;;;31.80;4.68;;;;;;;21.52;100.00;99710.31;5001886;28;20117;-86
2022/09/07 07:06:48;;;;;;;23.75;4.20;;;;;;;20.66;100.00;99715.59;5003706;28;20027;-85
2022/09/07 07:09:14;;;;;;;27.00;5.03;;;;;;;20.69;100.00;99717.88;5001123;28;20041;-85
2022/09/07 07:11:39;;;;;;;28.80;5.38;;;;;;;20.96;100.00;99711.81;5009539;28;20029;-85
2022/09/07 07:14:04;;;;;;;23.48;5.55;;;;;;;21.03;100.00;99721.75;4998380;28;20041;-85
2022/09/07 07:16:30;;;;;;;29.17;4.45;;;;;;;21.59;100.00;99717.38;5004162;28;20037;-86
2022/09/07 07:18:56;;;;;;;24.85;4.88;;;;;;;21.69;100.00;99716.22;4997259;28;20093;-86
2022/09/07 07:21:21;;;;;;;30.85;4.20;;;;;;;21.50;100.00;99715.03;4996007;28;20050;-87
2022/09/07 07:23:51;;;;;;;34.47;6.47;;;;;;;21.84;100.00;99713.44;5005683;28;20097;-85
2022/09/07 07:26:19;;;;;;;27.17;4.55;;;;;;;21.73;100.00;99721.00;5003759;28;20103;-85
2022/09/07 07:28:46;;;;;;;24.95;4.50;;;;;;;21.33;100.00;99720.63;5001318;28;20022;-86
2022/09/07 07:31:12;;;;;;;22.13;4.30;;;;;;;21.88;100.00;99712.03;5000893;28;20037;-85
2022/09/07 07:33:38;;;;;;;23.42;4.32;;;;;;;21.87;100.00;99713.06;5008760;28;20060;-84
2022/09/07 07:36:07;;;;;;;24.77;4.45;;;;;;;22.01;100.00;99716.66;5012471;28;20030;-85
2022/09/07 07:38:33;;;;;;;25.17;4.57;;;;;;;21.94;100.00;99711.28;5010818;28;20044;-85
2022/09/07 07:40:58;;;;;;;30.42;4.28;;;;;;;22.28;100.00;99713.16;5012239;28;20034;-85
2022/09/07 07:43:24;;;;;;;26.27;3.40;;;;;;;22.80;100.00;99710.09;5012335;28;20046;-85
2022/09/07 07:45:49;;;;;;;27.83;4.45;;;;;;;23.42;96.35;99702.81;5012438;28;20105;-86
2022/09/07 07:48:14;;;;;;;23.40;4.93;;;;;;;23.49;95.78;99696.44;5012409;28;20472;-85
2022/09/07 07:50:40;;;;;;;24.77;4.25;;;;;;;23.07;97.75;99703.00;5012183;28;20060;-86
2022/09/07 07:53:06;;;;;;;26.52;3.63;;;;;;;23.54;96.03;99706.53;5010707;28;20026;-85
2022/09/07 07:55:31;;;;;;;20.88;3.92;;;;;;;25.12;86.79;99709.00;5012390;28;20412;-86
2022/09/07 07:57:56;;;;;;;21.85;4.20;;;;;;;24.90;87.43;99713.88;5011893;28;20389;-86
2022/09/07 08:00:22;;;;;;;27.70;5.37;;;;;;;24.40;86.23;99713.63;5011925;28;20080;-85
2022/09/07 08:02:47;;;;;;;17.75;3.70;;;;;;;25.24;85.31;99716.41;5012158;28;20114;-85
2022/09/07 08:05:12;;;;;;;19.88;4.30;;;;;;;28.18;66.12;99697.34;5001889;28;20484;-86
2022/09/07 08:07:38;;;;;;;19.30;3.22;;;;;;;27.21;69.74;99709.31;5001716;28;20041;-86
2022/09/07 08:10:06;;;;;;;19.23;3.53;;;;;;;28.00;65.96;99712.63;5001073;28;20373;-86
2022/09/07 08:12:31;;;;;;;20.52;3.95;;;;;;;29.57;58.14;99720.53;4995663;28;20026;-86
2022/09/07 08:14:57;;;;;;;18.65;2.80;;;;;;;31.46;52.70;99713.16;5004068;28;20362;-86
2022/09/07 08:17:22;;;;;;;15.10;3.38;;;;;;;33.69;45.40;99714.50;4996356;28;21649;-86
2022/09/07 08:19:48;;;;;;;17.00;3.45;;;;;;;30.27;51.63;99712.88;4992505;28;20038;-86
2022/09/07 08:22:13;;;;;;;;;;;;;;;35.43;40.15;99702.81;4994996;28;20076;-86
2022/09/07 08:24:38;;;;;;;;;;;;;;;33.76;41.97;99709.63;5001147;28;19917;-86
2022/09/07 08:27:03;;;;;;;;;;;;;;;34.20;41.16;99705.44;4994073;28;19917;-87
2022/09/07 08:29:29;;;;;;;;;;;;;;;34.16;39.98;99706.00;4997798;28;19960;-86
2022/09/07 08:31:55;;;;;;;;;;;;;;;35.07;39.56;99704.97;5005898;28;20016;-86
2022/09/07 08:34:20;;;;;;;;;;;;;;;38.09;33.50;99709.28;4994341;28;19918;-87
2022/09/07 08:36:46;;;;;;;;;;;;;;;33.25;40.13;99709.63;4994919;28;19925;-87
2022/09/07 08:39:11;;;;;;;9.70;2.60;;;;;;;32.22;41.53;99647.63;4994756;28;20299;-86
2022/09/07 08:41:55;;;;;;;17.35;2.80;;;;;;;31.78;44.21;99642.53;5000242;28;20033;-87
2022/09/07 08:44:25;;;;;;;16.50;2.90;;;;;;;30.35;44.51;99720.63;5000293;28;20410;-87
2022/09/07 08:46:56;;;;;;;15.73;3.45;;;;;;;27.94;52.82;99713.56;4998269;28;20022;-86
2022/09/07 08:49:30;;;;;;;19.02;2.90;;;;;;;29.80;50.29;99692.50;4998262;28;20037;-86
2022/09/07 08:52:22;;;;;;;14.05;3.05;;;;;;;27.70;53.18;99708.13;5001322;28;20116;-86
2022/09/07 08:55:01;;;;;;;13.48;2.90;;;;;;;25.69;62.67;99717.06;4998892;28;20503;-86
2022/09/07 08:57:32;;;;;;;21.67;3.65;;;;;;;24.49;71.10;99711.56;5001631;28;20045;-86
2022/09/07 09:00:06;;;;;;;17.63;2.73;;;;;;;24.00;83.14;99713.75;5004003;28;20100;-86
2022/09/07 09:02:32;;;;;;;16.38;3.30;;;;;;;23.17;91.58;99722.97;5006356;28;20057;-86
2022/09/07 09:04:57;;;;;;;15.13;3.03;;;;;;;23.44;91.99;99703.44;5009237;28;20089;-86
2022/09/07 09:07:28;;;;;;;12.55;2.88;;;;;;;24.78;87.24;99706.69;5003897;28;21338;-86
2022/09/07 09:10:30;;;;;;;23.90;3.63;;;;;;;29.80;64.53;99692.50;5010175;28;20038;-86
2022/09/07 09:13:12;;;;;;;12.02;2.65;;;;;;;33.76;49.40;99698.72;5002098;28;20292;-86
2022/09/07 09:15:56;;;;;;;12.05;2.72;;;;;;;35.20;44.15;99693.47;5006490;28;20392;-86
2022/09/07 09:18:32;;;;;;;20.67;4.05;;;;;;;33.74;42.77;99682.66;5010506;28;20108;-87
2022/09/07 09:20:59;;;;;;;6.35;2.08;;;;;;;34.63;40.66;99673.88;5007657;28;20041;-88
2022/09/07 09:23:33;;;;;;;7.90;2.10;;;;;;;36.28;37.04;99679.56;4997796;28;20113;-87
2022/09/07 09:26:01;;;;;;;;;;;;;;;37.30;35.46;99688.22;5002407;28;20037;-87
2022/09/07 09:28:26;;;;;;;13.93;2.33;;;;;;;32.08;43.27;99698.09;5007103;28;20008;-87
2022/09/07 09:30:51;;;;;;;15.65;2.78;;;;;;;28.79;50.55;99693.22;5008642;28;20101;-86
2022/09/07 09:33:20;;;;;;;10.55;2.10;;;;;;;27.77;55.12;99688.34;4995228;28;20484;-87
2022/09/07 09:35:50;;;;;;;15.07;3.05;;;;;;;25.99;64.61;99700.28;4997423;28;20114;-87
2022/09/07 09:38:39;;;;;;;14.20;2.23;;;;;;;24.67;73.63;99700.16;5001793;28;20057;-86
2022/09/07 09:41:12;;;;;;;12.73;2.45;;;;;;;23.50;80.28;99703.44;5003902;28;20034;-86
2022/09/07 09:43:50;;;;;;;14.65;2.63;;;;;;;23.83;81.14;99696.44;5006176;28;20034;-86
2022/09/07 09:46:30;;;;;;;15.40;3.33;;;;;;;28.04;62.09;99705.72;5001144;28;20037;-86
2022/09/07 09:48:58;;;;;;;12.25;2.35;;;;;;;32.36;48.18;99687.91;4997275;28;20488;-87
2022/09/07 09:51:26;;;;;;;7.65;1.88;;;;;;;34.51;42.66;99687.03;4994783;28;20022;-87
2022/09/07 09:53:56;;;;;;;7.63;1.88;;;;;;;35.55;37.71;99686.88;4996905;28;20027;-87
2022/09/07 09:56:35;;;;;;;9.77;2.40;;;;;;;35.03;38.63;99682.09;5005398;28;20038;-87
2022/09/07 09:59:15;;;;;;;9.30;2.13;;;;;;;36.68;35.99;99690.25;5005813;28;20511;-87
2022/09/07 10:01:42;;;;;;;14.57;2.53;;;;;;;32.23;42.12;99681.06;4997229;28;20054;-87
2022/09/07 10:04:29;;;;;;;14.77;2.53;;;;;;;34.63;39.34;99676.63;4998490;28;20094;-87
2022/09/07 10:06:56;;;;;;;15.93;2.38;;;;;;;34.36;38.70;99677.88;5005905;28;20059;-87
2022/09/07 10:09:25;;;;;;;;;;;;;;;37.27;34.88;99671.59;5011241;28;20080;-87
2022/09/07 10:11:53;;;;;;;;;;;;;;;39.45;31.73;99671.91;5010564;28;19957;-87
2022/09/07 10:14:22;;;;;;;;;;;;;;;36.37;34.66;99670.69;5005017;28;19946;-87
2022/09/07 10:16:48;;;;;;;;;;;;;;;36.47;34.56;99659.63;4999669;28;19924;-87
2022/09/07 10:19:25;;;;;;;;;;;;;;;35.38;35.45;99656.47;5003857;28;20321;-87
2022/09/07 10:21:57;;;;;;;;;;;;;;;34.44;36.50;99664.72;4994647;28;19918;-87
2022/09/07 10:24:30;;;;;;;10.73;2.58;;;;;;;31.03;42.66;99664.22;4995381;28;20439;-87
2022/09/07 10:26:56;;;;;;;8.02;2.08;;;;;;;28.23;49.35;99662.38;4999284;28;20026;-86
2022/09/07 10:29:34;;;;;;;16.38;2.97;;;;;;;28.07;52.71;99667.44;5000579;28;20022;-86
2022/09/07 10:32:34;;;;;;;13.73;2.85;;;;;;;29.41;50.88;99662.69;4998183;28;20030;-86
2022/09/07 10:35:24;;;;;;;12.93;2.95;;;;;;;29.79;50.11;99671.09;4994288;28;20412;-86
2022/09/07 10:38:15;;;;;;;13.13;2.60;;;;;;;31.09;47.62;99648.81;4997207;28;20408;-86
2022/09/07 10:41:08;;;;;;;8.63;1.67;;;;;;;32.45;44.67;99642.03;4997377;28;20061;-86
2022/09/07 10:43:49;;;;;;;17.95;2.53;;;;;;;29.87;49.17;99649.03;5005518;28;20026;-86
2022/09/07 10:46:26;;;;;;;11.32;2.38;;;;;;;27.91;52.76;99662.78;5005219;28;20058;-86
2022/09/07 10:48:57;;;;;;;12.73;2.65;;;;;;;26.02;58.73;99655.97;5003847;28;20029;-86
2022/09/07 10:51:46;;;;;;;9.07;1.92;;;;;;;25.83;64.63;99642.47;4999154;28;20741;-86
2022/09/07 10:54:48;;;;;;;13.63;2.80;;;;;;;25.88;63.99;99647.19;4996526;28;20024;-85
2022/09/07 10:57:28;;;;;;;12.63;2.35;;;;;;;26.70;60.80;99634.22;5001276;28;20030;-86
2022/09/07 11:00:03;;;;;;;12.77;2.42;;;;;;;26.41;61.99;99641.22;5005760;28;20168;-85
2022/09/07 11:03:05;;;;;;;9.43;2.28;;;;;;;27.28;62.62;99632.75;4998514;28;20049;-86
2022/09/07 11:05:38;;;;;;;10.40;2.72;;;;;;;29.62;54.13;99625.09;5001578;28;20334;-86
2022/09/07 11:08:10;;;;;;;14.15;2.85;;;;;;;30.93;50.56;99628.88;5008026;28;20558;-86
2022/09/07 11:11:02;;;;;;;10.93;2.22;;;;;;;30.38;50.20;99625.31;4993672;28;20495;-86
2022/09/07 11:13:32;;;;;;;9.38;2.15;;;;;;;30.75;46.37;99632.75;4976009;28;20053;-86
2022/09/07 11:16:03;;;;;;;11.32;2.47;;;;;;;31.06;45.43;99629.53;4996674;28;20048;-86
2022/09/07 11:18:35;;;;;;;10.82;2.60;;;;;;;29.92;47.31;99627.47;5004110;28;20164;-86
2022/09/07 11:21:05;;;;;;;7.57;1.90;;;;;;;28.20;51.96;99635.84;4995343;28;20029;-86
2022/09/07 11:23:52;;;;;;;9.32;2.40;;;;;;;27.02;55.98;99641.22;5004339;28;20035;-86
2022/09/07 11:27:01;;;;;;;9.40;1.92;;;;;;;29.20;51.29;99628.28;4997380;28;20033;-86
2022/09/07 11:29:39;;;;;;;9.73;1.80;;;;;;;29.70;48.64;99627.41;5001127;28;20030;-86
2022/09/07 11:32:34;;;;;;;10.27;2.25;;;;;;;30.02;47.17;99630.28;4991470;28;20034;-86
2022/09/07 11:35:17;;;;;;;11.45;1.95;;;;;;;29.05;49.58;99618.00;4996410;28;20034;-86
2022/09/07 11:37:58;;;;;;;7.45;1.90;;;;;;;29.76;49.46;99621.03;5011958;28;20088;-86
2022/09/07 11:40:23;;;;;;;8.13;2.17;;;;;;;30.12;48.60;99615.25;5011343;28;20080;-86